Time;durP1;ratioP1;P1;durP2;ratioP2;P2;SDS_P1;SDS_P2;PMS_P1;PMS_P2;Temp;Humidity;BMP_temperature;BMP_pressure;BME280_temperature;BME280_humidity;BME280_pressure;Samples;Min_cycle;Max_cycle;Signal;HPM_P1;HPM_P2
2022/03/19 00:00:51;;;;;;;;;5.00;5.00;;;;;13.25;41.16;103241.22;4998422;28;45245;-69
2022/03/19 00:03:18;;;;;;;;;6.00;5.75;;;;;13.32;41.05;103246.09;4996877;27;45252;-70
2022/03/19 00:05:45;;;;;;;;;5.25;4.00;;;;;13.32;40.92;103247.78;4996669;28;45315;-71
2022/03/19 00:08:11;;;;;;;;;4.75;4.25;;;;;13.30;40.69;103242.47;4996008;28;45673;-69
2022/03/19 00:10:37;;;;;;;;;2.00;2.00;;;;;13.28;40.82;103241.44;4996518;27;45211;-69
2022/03/19 00:13:04;;;;;;;;;7.75;6.00;;;;;13.28;40.76;103250.97;4996649;27;45843;-69
2022/03/19 00:15:30;;;;;;;;;5.75;5.00;;;;;13.27;40.54;103244.84;4979585;28;45472;-71
2022/03/19 00:17:57;;;;;;;;;6.25;6.25;;;;;13.28;40.34;103253.56;4997411;28;45418;-70
2022/03/19 00:20:23;;;;;;;;;6.50;4.25;;;;;13.23;40.40;103250.59;4996474;28;45441;-70
2022/03/19 00:22:49;;;;;;;;;4.50;4.50;;;;;13.27;40.08;103257.84;4996785;27;45418;-71
2022/03/19 00:25:15;;;;;;;;;4.75;4.75;;;;;13.24;40.32;103257.63;4997524;28;45223;-71
2022/03/19 00:27:41;;;;;;;;;4.00;4.00;;;;;13.25;40.07;103255.94;4995869;28;45216;-73
2022/03/19 00:30:09;;;;;;;;;7.50;5.75;;;;;13.24;40.12;103251.53;4995532;28;45680;-70
2022/03/19 00:32:35;;;;;;;;;7.25;7.25;;;;;13.19;40.29;103243.38;4995938;28;45318;-70
2022/03/19 00:35:01;;;;;;;;;8.25;5.25;;;;;13.18;40.08;103254.59;4995832;27;45518;-70
2022/03/19 00:37:27;;;;;;;;;5.00;5.00;;;;;13.14;39.95;103235.25;4995804;28;45428;-71
2022/03/19 00:39:53;;;;;;;;;11.00;7.75;;;;;13.16;40.02;103241.47;4995624;28;45424;-71
2022/03/19 00:42:18;;;;;;;;;9.75;7.00;;;;;13.21;40.21;103251.28;4999659;28;45321;-71
2022/03/19 00:44:44;;;;;;;;;6.50;6.50;;;;;13.16;39.70;103246.69;4996225;28;45328;-71
2022/03/19 00:47:10;;;;;;;;;9.00;6.75;;;;;13.13;40.12;103245.53;4995227;28;46129;-70
2022/03/19 00:49:36;;;;;;;;;7.75;6.75;;;;;13.17;39.86;103247.56;4997194;28;45360;-70
2022/03/19 00:52:02;;;;;;;;;5.75;5.75;;;;;13.13;39.70;103241.25;5012450;28;45164;-76
2022/03/19 00:54:27;;;;;;;;;7.75;5.25;;;;;13.17;39.61;103244.97;4997091;28;45177;-71
2022/03/19 00:56:53;;;;;;;;;7.00;5.00;;;;;13.14;39.52;103240.44;4977388;28;45477;-70
2022/03/19 00:59:19;;;;;;;;;5.50;5.50;;;;;13.15;39.34;103238.75;4995406;28;45316;-71
2022/03/19 01:01:44;;;;;;;;;3.75;3.75;;;;;13.15;39.25;103238.75;4979483;28;45494;-70
2022/03/19 01:04:10;;;;;;;;;4.00;4.00;;;;;13.12;39.35;103241.13;5010855;28;45371;-72
2022/03/19 01:06:35;;;;;;;;;2.00;2.00;;;;;13.05;39.25;103228.44;4993966;28;47799;-71
2022/03/19 01:09:01;;;;;;;;;4.50;2.75;;;;;13.02;39.43;103231.75;4995092;27;45426;-70
2022/03/19 01:11:27;;;;;;;;;4.50;3.25;;;;;12.99;39.31;103239.31;4994580;28;45341;-70
2022/03/19 01:13:54;;;;;;;;;3.00;3.00;;;;;12.92;39.10;103230.16;5008959;27;45495;-70
2022/03/19 01:16:20;;;;;;;;;4.00;4.00;;;;;12.89;39.37;103219.53;5003821;28;45464;-71
2022/03/19 01:18:46;;;;;;;;;4.75;3.50;;;;;12.90;39.39;103223.94;5006156;28;45357;-70
2022/03/19 01:21:12;;;;;;;;;6.75;4.75;;;;;12.89;39.47;103231.63;4982148;28;45197;-76
2022/03/19 01:23:38;;;;;;;;;3.75;3.50;;;;;12.86;39.56;103221.91;5011219;28;45451;-71
2022/03/19 01:26:04;;;;;;;;;3.00;3.00;;;;;12.81;39.40;103223.25;4994741;28;45757;-70
2022/03/19 01:28:29;;;;;;;;;5.25;3.00;;;;;12.80;39.38;103224.03;5003239;28;45322;-70
2022/03/19 01:30:55;;;;;;;;;4.00;3.75;;;;;12.70;39.53;103210.34;5003267;28;45603;-71
2022/03/19 01:33:20;;;;;;;;;2.25;2.25;;;;;12.78;39.42;103216.13;4996270;28;45590;-70
2022/03/19 01:35:46;;;;;;;;;3.75;3.00;;;;;12.83;39.66;103220.00;5006559;28;45681;-70
2022/03/19 01:38:11;;;;;;;;;3.75;3.50;;;;;12.83;39.34;103207.00;4994626;28;45275;-70
2022/03/19 01:40:37;;;;;;;;;3.25;2.50;;;;;12.77;39.08;103213.41;4996883;28;45525;-70
2022/03/19 01:43:03;;;;;;;;;3.00;3.00;;;;;12.75;39.55;103209.78;5004531;28;45415;-70
2022/03/19 01:45:29;;;;;;;;;2.00;2.00;;;;;12.76;39.11;103209.00;4994917;28;46049;-70
2022/03/19 01:47:55;;;;;;;;;5.75;4.75;;;;;12.76;39.15;103209.00;4994924;28;46038;-71
2022/03/19 01:50:23;;;;;;;;;3.50;3.00;;;;;12.75;39.18;103205.50;4995407;27;45235;-71
2022/03/19 01:52:49;;;;;;;;;3.25;3.25;;;;;12.72;39.01;103200.09;5002182;27;45784;-73
2022/03/19 01:55:18;;;;;;;;;3.00;3.00;;;;;12.69;39.03;103203.34;5016233;28;45495;-79
2022/03/19 01:57:46;;;;;;;;;2.50;2.50;;;;;12.68;38.80;103198.97;5014722;27;45896;-71
2022/03/19 02:00:18;;;;;;;;;2.50;2.00;;;;;12.62;39.16;103197.59;5013537;28;45377;-71
2022/03/19 02:02:46;;;;;;;;;2.75;2.00;;;;;12.59;39.32;103198.25;5005002;28;45703;-75
2022/03/19 02:05:17;;;;;;;;;2.00;1.75;;;;;12.59;39.56;103195.63;5011396;28;45525;-77
2022/03/19 02:07:44;;;;;;;;;3.75;3.75;;;;;12.59;39.20;103193.03;4990559;28;45803;-72
2022/03/19 02:10:10;;;;;;;;;5.00;4.00;;;;;12.56;39.43;103185.03;4995298;28;45319;-71
2022/03/19 02:12:37;;;;;;;;;3.00;3.00;;;;;12.52;39.60;103183.91;4997260;28;45478;-78
2022/03/19 02:15:04;;;;;;;;;2.00;2.00;;;;;12.53;39.44;103182.19;5011043;28;46356;-71
2022/03/19 02:17:29;;;;;;;;;5.00;2.25;;;;;12.57;39.48;103179.06;5011078;27;46401;-80
2022/03/19 02:19:56;;;;;;;;;2.00;2.00;;;;;12.54;39.52;103179.72;4998402;28;45469;-71
2022/03/19 02:22:23;;;;;;;;;3.25;3.25;;;;;12.48;39.47;103179.25;4998646;28;45503;-71
2022/03/19 02:27:34;;;;;;;;;4.50;3.25;;;;;12.41;39.75;103178.69;5014082;28;45236;-71
2022/03/19 02:30:00;;;;;;;;;3.25;3.00;;;;;12.36;39.81;103171.44;4982094;28;45523;-71
2022/03/19 02:32:26;;;;;;;;;5.00;3.00;;;;;12.33;39.79;103173.81;4994877;28;45217;-71
2022/03/19 02:34:55;;;;;;;;;4.50;4.00;;;;;12.36;39.94;103170.53;4994173;28;46068;-70
2022/03/19 02:37:21;;;;;;;;;3.50;3.50;;;;;12.32;39.86;103158.09;5006701;28;45818;-70
2022/03/19 02:39:47;;;;;;;;;7.00;5.00;;;;;12.32;39.88;103160.69;4995342;27;45332;-71
2022/03/19 02:42:17;;;;;;;;;4.00;4.00;;;;;12.28;40.02;103159.56;4999731;28;45329;-70
2022/03/19 02:44:46;;;;;;;;;2.00;2.00;;;;;12.29;40.13;103156.19;4997802;28;46049;-70
2022/03/19 02:47:12;;;;;;;;;3.00;3.00;;;;;12.31;40.17;103156.31;4994193;28;45403;-71
2022/03/19 02:49:38;;;;;;;;;6.75;4.00;;;;;12.28;40.42;103151.78;4994640;28;45397;-75
2022/03/19 02:52:04;;;;;;;;;5.00;3.75;;;;;12.28;40.63;103149.16;4995033;28;45460;-70
2022/03/19 02:54:32;;;;;;;;;5.50;4.75;;;;;12.31;40.22;103153.72;5013486;28;45636;-70
2022/03/19 02:56:59;;;;;;;;;4.00;3.00;;;;;12.28;40.26;103149.16;5008711;28;45320;-70
2022/03/19 02:59:29;;;;;;;;;3.25;3.25;;;;;12.29;40.55;103153.59;4977780;28;45544;-70
2022/03/19 03:02:05;;;;;;;;;4.75;3.75;;;;;12.28;40.39;103156.06;4996118;28;45533;-74
2022/03/19 03:04:32;;;;;;;;;5.50;5.00;;;;;12.21;40.37;103145.19;5005362;28;45345;-70
2022/03/19 03:07:03;;;;;;;;;6.00;5.00;;;;;12.20;40.85;103147.69;5004803;28;45688;-70
2022/03/19 03:09:32;;;;;;;;;6.75;6.75;;;;;12.19;40.78;103153.69;4999064;27;45993;-71
2022/03/19 03:11:58;;;;;;;;;6.00;5.50;;;;;12.20;40.86;103148.59;5008327;28;45578;-69
2022/03/19 03:14:24;;;;;;;;;7.50;6.25;;;;;12.16;40.97;103146.56;4998267;28;45981;-80
2022/03/19 03:16:55;;;;;;;;;6.50;4.75;;;;;12.15;41.07;103151.66;5005043;28;45423;-69
2022/03/19 03:19:21;;;;;;;;;7.00;4.75;;;;;12.15;40.97;103146.47;4996721;28;45252;-69
2022/03/19 03:21:47;;;;;;;;;7.00;6.00;;;;;12.14;41.58;103145.53;4996764;27;45224;-70
2022/03/19 03:24:14;;;;;;;;;10.75;6.75;;;;;12.14;41.39;103149.84;4995435;28;46154;-89
2022/03/19 03:26:40;;;;;;;;;6.00;5.00;;;;;12.14;41.40;103149.84;4998772;28;45819;-70
2022/03/19 03:29:06;;;;;;;;;6.50;6.50;;;;;12.08;41.48;103135.59;4999747;28;45393;-72
2022/03/19 03:31:33;;;;;;;;;7.50;6.25;;;;;12.13;41.50;103140.25;5007582;28;45525;-71
2022/03/19 03:33:59;;;;;;;;;4.75;4.00;;;;;12.16;41.72;103143.03;4994084;28;45414;-71
2022/03/19 03:36:24;;;;;;;;;9.50;6.50;;;;;12.10;41.54;103121.81;4997354;28;46757;-71
2022/03/19 03:38:50;;;;;;;;;7.25;5.25;;;;;12.11;41.94;103121.03;4994831;28;45504;-81
2022/03/19 03:41:16;;;;;;;;;9.75;7.00;;;;;12.11;41.83;103124.53;4996386;28;45208;-70
2022/03/19 03:43:42;;;;;;;;;6.00;5.50;;;;;12.00;41.91;103115.94;4984500;28;46170;-80
2022/03/19 03:46:08;;;;;;;;;7.00;5.00;;;;;12.03;42.14;103126.56;5009204;28;45719;-72
2022/03/19 03:48:38;;;;;;;;;8.75;8.00;;;;;12.05;42.27;103119.75;4996461;28;45204;-71
2022/03/19 03:51:08;;;;;;;;;9.00;7.75;;;;;12.00;42.50;103105.53;5001343;28;45473;-72
2022/03/19 03:53:35;;;;;;;;;9.00;8.00;;;;;11.98;42.69;103112.31;5013909;27;45708;-71
2022/03/19 03:56:03;;;;;;;;;8.75;7.75;;;;;11.93;42.86;103117.13;5015054;28;45929;-71
2022/03/19 03:58:29;;;;;;;;;9.25;9.00;;;;;11.96;42.91;103110.34;5001153;27;45496;-70
2022/03/19 04:00:56;;;;;;;;;9.00;7.25;;;;;11.91;43.25;103103.09;4995115;27;45329;-71
2022/03/19 04:03:22;;;;;;;;;7.75;7.75;;;;;11.90;43.18;103108.19;4975269;28;46329;-74
2022/03/19 04:05:48;;;;;;;;;9.50;8.00;;;;;11.90;43.28;103105.59;4994500;28;45786;-70
2022/03/19 04:08:13;;;;;;;;;10.50;9.25;;;;;11.90;43.48;103110.78;5011773;28;45407;-69
2022/03/19 04:10:39;;;;;;;;;11.25;9.00;;;;;11.90;43.78;103108.19;5013921;28;45265;-69
2022/03/19 04:13:05;;;;;;;;;11.25;11.00;;;;;11.89;43.91;103109.88;5008406;28;46134;-70
2022/03/19 04:15:30;;;;;;;;;13.25;10.75;;;;;11.90;44.21;103113.38;4993948;28;45563;-70
2022/03/19 04:17:56;;;;;;;;;7.00;7.00;;;;;11.83;44.26;103121.47;4992862;28;45268;-70
2022/03/19 04:20:22;;;;;;;;;16.50;12.00;;;;;11.81;44.38;103113.56;4993875;28;45593;-70
2022/03/19 04:22:49;;;;;;;;;10.00;10.00;;;;;11.78;44.57;103115.94;5002039;28;46162;-70
2022/03/19 04:25:20;;;;;;;;;13.00;10.00;;;;;11.75;44.49;103105.34;5012113;27;45310;-74
2022/03/19 04:27:50;;;;;;;;;18.25;12.50;;;;;11.74;44.95;103108.72;5010254;28;45433;-72
2022/03/19 04:30:17;;;;;;;;;15.50;13.25;;;;;11.71;45.23;103122.38;4993410;28;45387;-69
2022/03/19 04:32:46;;;;;;;;;18.25;16.25;;;;;11.68;45.16;103116.94;4993395;27;45350;-70
2022/03/19 04:38:03;;;;;;;;;16.50;15.00;;;;;11.62;45.81;103113.84;4976444;28;45392;-70
2022/03/19 04:40:29;;;;;;;;;15.00;13.75;;;;;11.59;45.97;103113.63;4993810;28;45288;-70
2022/03/19 04:42:55;;;;;;;;;16.25;14.00;;;;;11.55;46.29;103116.75;4995548;28;45349;-70
2022/03/19 04:45:20;;;;;;;;;13.75;12.50;;;;;11.50;46.48;103119.00;4994729;28;45447;-76
2022/03/19 04:47:46;;;;;;;;;19.25;14.75;;;;;11.46;46.93;103119.50;5005919;28;45268;-73
2022/03/19 04:50:12;;;;;;;;;15.75;14.50;;;;;11.44;46.91;103114.22;5016633;28;45464;-75
2022/03/19 04:52:39;;;;;;;;;16.00;16.00;;;;;11.48;47.18;103114.47;4989630;28;47051;-74
2022/03/19 04:55:06;;;;;;;;;18.75;16.25;;;;;11.44;47.16;103119.41;5007848;28;45512;-70
2022/03/19 04:57:32;;;;;;;;;17.50;16.25;;;;;11.42;47.45;103114.91;5008290;28;45430;-73
2022/03/19 04:59:59;;;;;;;;;16.50;15.75;;;;;11.40;47.52;103116.47;4996047;27;45363;-71
2022/03/19 05:02:25;;;;;;;;;19.00;18.00;;;;;11.37;48.10;103104.16;4999560;28;45373;-76
2022/03/19 05:04:51;;;;;;;;;16.75;16.75;;;;;11.36;48.45;103106.63;4996553;28;45439;-75
2022/03/19 05:07:19;;;;;;;;;20.25;17.25;;;;;11.42;48.28;103117.50;4998640;28;45291;-73
2022/03/19 05:12:38;;;;;;;;;20.25;15.75;;;;;11.38;48.91;103100.78;4971542;28;45874;-77
2022/03/19 05:15:05;;;;;;;;;21.25;17.25;;;;;11.35;48.93;103110.91;5013861;28;45417;-70
2022/03/19 05:17:31;;;;;;;;;18.50;18.50;;;;;11.38;49.51;103107.66;5012595;28;45414;-70
2022/03/19 05:19:57;;;;;;;;;16.25;16.25;;;;;11.40;49.74;103101.78;4998051;28;45383;-70
2022/03/19 05:22:22;;;;;;;;;18.00;17.25;;;;;11.44;49.72;103108.16;4998897;28;45230;-70
2022/03/19 05:24:48;;;;;;;;;19.50;18.25;;;;;11.46;49.58;103109.16;4978689;28;45468;-70
2022/03/19 05:27:14;;;;;;;;;19.50;14.50;;;;;11.41;49.63;103108.78;4996615;28;45454;-76
2022/03/19 05:29:40;;;;;;;;;23.75;19.00;;;;;11.37;50.17;103100.66;4997556;28;45380;-69
2022/03/19 05:32:06;;;;;;;;;23.25;20.25;;;;;11.37;49.75;103106.75;4997138;28;45553;-69
2022/03/19 05:34:34;;;;;;;;;18.00;17.75;;;;;11.34;50.29;103110.81;4998042;28;46078;-70
2022/03/19 05:37:01;;;;;;;;;25.00;20.25;;;;;11.32;50.29;103108.06;5004264;28;45381;-84
2022/03/19 05:39:27;;;;;;;;;21.25;20.75;;;;;11.33;50.72;103121.97;4996848;27;45261;-86
2022/03/19 05:41:52;;;;;;;;;22.00;19.25;;;;;11.30;50.85;103115.72;5000591;28;46344;-74
2022/03/19 05:44:18;;;;;;;;;15.50;15.50;;;;;11.29;50.62;103105.22;5006748;27;45181;-73
2022/03/19 05:46:44;;;;;;;;;20.00;18.00;;;;;11.33;50.96;103109.88;5014105;28;45365;-84
2022/03/19 05:49:10;;;;;;;;;21.50;17.25;;;;;11.39;50.80;103106.88;5016322;27;45586;-75
2022/03/19 05:51:35;;;;;;;;;23.75;19.25;;;;;11.38;51.06;103107.66;5014241;28;45525;-86
2022/03/19 05:54:02;;;;;;;;;25.50;20.25;;;;;11.36;51.34;103110.13;5008129;27;45501;-73
2022/03/19 05:56:29;;;;;;;;;26.50;20.25;;;;;11.32;51.52;103096.81;4997603;28;45433;-75
2022/03/19 05:58:55;;;;;;;;;26.25;20.75;;;;;11.38;51.87;103110.25;4997916;28;45321;-70
2022/03/19 06:01:26;;;;;;;;;26.00;23.25;;;;;11.40;51.97;103108.69;4997569;28;46014;-70
2022/03/19 06:03:56;;;;;;;;;29.00;22.25;;;;;11.41;52.17;103115.69;4996932;28;45405;-70
2022/03/19 06:06:23;;;;;;;;;25.75;21.00;;;;;11.30;52.33;103096.66;4995511;27;45217;-70
2022/03/19 06:08:49;;;;;;;;;27.75;22.50;;;;;11.34;52.67;103118.59;5006813;28;45325;-70
2022/03/19 06:11:14;;;;;;;;;30.75;25.00;;;;;11.35;52.53;103109.97;4995018;28;45307;-72
2022/03/19 06:13:40;;;;;;;;;28.75;24.00;;;;;11.34;52.70;103116.00;4994526;28;45409;-76
2022/03/19 06:16:05;;;;;;;;;30.50;26.75;;;;;11.31;52.63;103108.84;4993246;28;45522;-74
2022/03/19 06:18:31;;;;;;;;;31.50;24.50;;;;;11.29;53.17;103113.00;4995270;28;45568;-72
2022/03/19 06:20:57;;;;;;;;;32.75;27.00;;;;;11.29;53.26;103118.19;4998102;28;46060;-77
2022/03/19 06:23:23;;;;;;;;;28.50;25.75;;;;;11.26;53.73;103113.66;4994770;28;45705;-70
2022/03/19 06:25:50;;;;;;;;;30.50;25.75;;;;;11.23;53.98;103115.13;4976934;28;45433;-70
2022/03/19 06:28:16;;;;;;;;;33.75;26.00;;;;;11.21;54.35;103114.09;4995848;28;45342;-73
2022/03/19 06:30:42;;;;;;;;;27.25;25.75;;;;;11.20;54.39;103120.06;4994354;28;46155;-73
2022/03/19 06:33:08;;;;;;;;;28.75;26.00;;;;;11.11;55.24;103108.19;4995777;27;45181;-75
2022/03/19 06:38:21;;;;;;;;;35.25;31.25;;;;;11.15;55.87;103115.44;4999304;28;45338;-76
2022/03/19 06:40:46;;;;;;;;;32.25;29.25;;;;;11.15;55.51;103107.66;4998803;28;45598;-72
2022/03/19 06:43:12;;;;;;;;;30.75;27.75;;;;;11.11;55.84;103097.81;4998673;28;45365;-69
2022/03/19 06:45:38;;;;;;;;;32.75;27.75;;;;;11.22;56.13;103108.13;4998049;28;45409;-77
2022/03/19 06:48:05;;;;;;;;;37.75;32.25;;;;;11.20;56.76;103109.69;4995316;28;45420;-77
2022/03/19 06:50:31;;;;;;;;;35.00;31.50;;;;;11.19;56.86;103103.59;4994232;28;46147;-75
2022/03/19 06:52:56;;;;;;;;;42.25;33.25;;;;;11.17;57.45;103093.91;4976443;28;45419;-69
2022/03/19 06:55:22;;;;;;;;;38.00;34.25;;;;;11.20;57.34;103109.69;4994342;28;45292;-72
2022/03/19 06:57:47;;;;;;;;;42.75;34.75;;;;;11.17;57.63;103112.94;4995539;28;45221;-74
2022/03/19 07:00:13;;;;;;;;;38.75;35.00;;;;;11.19;57.90;103103.59;4994590;28;46167;-71
2022/03/19 07:02:49;;;;;;;;;44.75;34.50;;;;;11.17;58.08;103101.69;5000522;28;45680;-71
2022/03/19 07:05:27;;;;;;;;;48.50;35.75;;;;;11.22;57.95;103103.88;5001792;27;45366;-69
2022/03/19 07:07:54;;;;;;;;;47.25;33.75;;;;;11.23;58.22;103104.75;5010174;28;45461;-78
2022/03/19 07:10:21;;;;;;;;;39.00;32.25;;;;;11.21;58.51;103099.47;4994537;28;45598;-73
2022/03/19 07:12:49;;;;;;;;;42.00;34.50;;;;;11.24;59.03;103106.56;5009686;28;46236;-70
2022/03/19 07:15:16;;;;;;;;;47.75;36.00;;;;;11.26;58.86;103111.06;4995446;28;45454;-69
2022/03/19 07:17:43;;;;;;;;;41.00;33.00;;;;;11.29;59.73;103110.41;4976798;28;45356;-71
2022/03/19 07:20:10;;;;;;;;;48.00;36.50;;;;;11.30;59.40;103105.38;4996078;28;45351;-70
2022/03/19 07:23:06;;;;;;;;;48.50;36.50;;;;;11.29;60.05;103107.81;5002743;28;45840;-70
2022/03/19 07:25:34;;;;;;;;;48.75;38.00;;;;;11.25;60.59;103105.78;4992954;27;45385;-74
2022/03/19 07:28:09;;;;;;;;;49.00;37.00;;;;;11.26;60.60;103113.66;5013686;28;45373;-70
2022/03/19 07:30:37;;;;;;;;;49.50;39.25;;;;;11.28;60.55;103109.53;5013153;28;45417;-70
2022/03/19 07:33:04;;;;;;;;;48.25;39.50;;;;;11.25;61.26;103095.41;5002082;27;45405;-70
2022/03/19 07:35:30;;;;;;;;;51.00;40.50;;;;;11.31;61.21;103106.25;5002354;28;45454;-69
2022/03/19 07:37:57;;;;;;;;;47.00;35.25;;;;;11.38;61.05;103111.16;4995494;28;45501;-82
2022/03/19 07:43:11;;;;;;;;;49.25;38.00;;;;;11.42;61.08;103104.53;4978975;28;45234;-70
2022/03/19 07:45:38;;;;;;;;;57.50;42.50;;;;;11.46;61.36;103094.50;4994865;28;45607;-88
2022/03/19 07:48:04;;;;;;;;;49.75;40.75;;;;;11.48;61.87;103096.31;4996435;27;45502;-75
2022/03/19 07:50:30;;;;;;;;;50.50;38.00;;;;;11.51;61.59;103107.81;4996646;27;45406;-83
2022/03/19 07:52:57;;;;;;;;;53.50;40.75;;;;;11.52;61.99;103100.94;4994543;27;45376;-80
2022/03/19 07:55:24;;;;;;;;;54.75;40.00;;;;;11.52;62.08;103106.13;4994179;27;45348;-79
2022/03/19 07:57:50;;;;;;;;;49.00;40.75;;;;;11.51;62.56;103101.72;4995165;28;45575;-73
2022/03/19 08:00:16;;;;;;;;;56.00;43.25;;;;;11.48;62.33;103099.78;4995167;28;46085;-71
2022/03/19 08:02:42;;;;;;;;;55.25;43.75;;;;;11.46;62.17;103099.69;4998947;28;45543;-77
2022/03/19 08:05:09;;;;;;;;;58.00;43.25;;;;;11.49;62.56;103108.50;4993917;28;45513;-70
2022/03/19 08:07:37;;;;;;;;;54.00;41.50;;;;;11.48;63.26;103093.72;4992893;28;45555;-71
2022/03/19 08:10:06;;;;;;;;;56.25;43.00;;;;;11.49;62.91;103098.13;4995829;28;45343;-72
2022/03/19 08:12:33;;;;;;;;;56.75;43.00;;;;;11.45;63.39;103097.88;4993016;27;45516;-75
2022/03/19 08:14:59;;;;;;;;;51.00;41.50;;;;;11.41;63.66;103081.97;4992497;28;45457;-77
2022/03/19 08:17:26;;;;;;;;;53.50;41.75;;;;;11.53;63.66;103094.97;4994001;27;45318;-75
2022/03/19 08:19:52;;;;;;;;;53.50;42.00;;;;;11.46;64.13;103104.88;4978198;28;45399;-72
2022/03/19 08:22:18;;;;;;;;;51.50;43.00;;;;;11.39;63.72;103086.13;4978219;28;45885;-75
2022/03/19 08:24:46;;;;;;;;;58.25;42.25;;;;;11.46;64.24;103088.38;4995604;28;45223;-73
2022/03/19 08:27:11;;;;;;;;;56.50;46.00;;;;;11.50;64.30;103087.84;4976878;28;45375;-75
2022/03/19 08:29:37;;;;;;;;;56.75;42.75;;;;;11.49;64.15;103065.28;4995061;28;46337;-77
2022/03/19 08:32:08;;;;;;;;;54.25;42.25;;;;;11.63;63.73;103081.03;4995281;27;45426;-77
2022/03/19 08:34:34;;;;;;;;;57.75;42.50;;;;;11.57;63.59;103063.28;4995426;28;45340;-77
2022/03/19 08:37:00;;;;;;;;;50.75;41.50;;;;;11.67;63.73;103081.38;5014369;28;45567;-77
2022/03/19 08:40:28;;;;;;;;;59.00;46.50;;;;;11.66;64.12;103065.69;5009856;27;46073;-74
2022/03/19 08:42:22;;;;;;;;;58.25;45.75;;;;;11.46;63.95;103027.06;4987279;28;45641;-78
2022/03/19 08:44:48;;;;;;;;;55.50;41.50;;;;;11.70;63.32;103070.31;5020270;27;45589;-80
2022/03/19 08:47:13;;;;;;;;;55.75;44.50;;;;;11.58;63.67;103050.44;5053023;27;45496;-78
2022/03/19 08:49:39;;;;;;;;;57.50;45.75;;;;;11.79;63.88;103080.50;4993742;28;45785;-74
2022/03/19 08:52:05;;;;;;;;;60.75;44.00;;;;;11.82;64.00;103080.75;4990375;28;45460;-79
2022/03/19 08:54:30;;;;;;;;;50.50;42.50;;;;;11.80;63.69;103058.97;4968624;27;45482;-76
2022/03/19 08:56:56;;;;;;;;;58.25;47.00;;;;;11.97;63.94;103070.63;4980627;28;45477;-80
2022/03/19 08:59:22;;;;;;;;;53.00;43.75;;;;;11.92;63.50;103049.53;4965897;28;45583;-73
2022/03/19 09:01:49;;;;;;;;;55.25;41.25;;;;;12.07;63.32;103070.56;4976965;28;45340;-72
2022/03/19 09:04:16;;;;;;;;;56.25;45.00;;;;;12.12;63.13;103071.81;4995034;28;45340;-72
2022/03/19 09:06:43;;;;;;;;;60.00;46.75;;;;;12.12;63.32;103069.19;4994094;27;45468;-72
2022/03/19 09:09:11;;;;;;;;;59.50;44.75;;;;;12.13;63.17;103070.13;4994786;27;46438;-72
2022/03/19 09:11:37;;;;;;;;;58.75;47.00;;;;;12.20;62.98;103073.25;4993805;27;45730;-73
2022/03/19 09:14:05;;;;;;;;;57.25;44.00;;;;;12.27;62.94;103071.16;4994788;27;45335;-73
2022/03/19 09:16:31;;;;;;;;;52.50;41.25;;;;;12.30;62.77;103069.69;4995079;27;45229;-73
2022/03/19 09:18:57;;;;;;;;;47.00;38.00;;;;;12.34;62.64;103079.50;4994324;27;45423;-74
2022/03/19 09:21:23;;;;;;;;;58.00;45.00;;;;;12.38;62.70;103076.34;4995022;28;45630;-72
2022/03/19 09:23:51;;;;;;;;;58.50;46.50;;;;;12.42;62.79;103074.84;4995129;28;45481;-72
2022/03/19 09:26:18;;;;;;;;;60.25;46.75;;;;;12.47;62.59;103072.63;4995028;27;45758;-73
2022/03/19 09:28:48;;;;;;;;;60.50;46.50;;;;;12.52;62.64;103066.06;4994991;28;45278;-71
2022/03/19 09:31:16;;;;;;;;;60.00;47.00;;;;;12.57;62.27;103064.72;4995025;27;45999;-72
2022/03/19 09:33:43;;;;;;;;;56.25;45.25;;;;;12.63;61.69;103062.56;4993987;27;45308;-72
2022/03/19 09:36:09;;;;;;;;;65.00;48.00;;;;;12.65;61.79;103060.97;4994328;28;45322;-72
2022/03/19 09:38:35;;;;;;;;;59.50;45.50;;;;;12.70;61.51;103059.59;4994282;28;45868;-72
2022/03/19 09:41:00;;;;;;;;;61.75;45.25;;;;;12.75;61.33;103061.63;4994439;28;45288;-72
2022/03/19 09:43:29;;;;;;;;;59.00;47.00;;;;;12.78;60.40;103061.88;4994735;28;45577;-73
2022/03/19 09:45:54;;;;;;;;;62.00;46.50;;;;;12.81;60.25;103057.78;4994425;28;45537;-72
2022/03/19 09:48:21;;;;;;;;;58.25;47.00;;;;;12.81;60.39;103037.00;4994306;27;46103;-72
2022/03/19 09:50:53;;;;;;;;;55.50;44.50;;;;;12.90;60.87;103043.63;4993963;28;45725;-73
2022/03/19 09:53:22;;;;;;;;;59.50;46.25;;;;;12.96;60.40;103037.16;4994014;28;45556;-71
2022/03/19 09:55:49;;;;;;;;;54.75;45.25;;;;;12.96;59.78;103041.44;4994105;28;45514;-74
2022/03/19 09:58:15;;;;;;;;;57.50;45.00;;;;;12.90;59.71;103009.81;4994798;28;45429;-75
2022/03/19 10:00:42;;;;;;;;;56.75;45.75;;;;;13.12;59.19;103028.75;4995946;28;45310;-78
2022/03/19 10:03:10;;;;;;;;;58.00;46.25;;;;;13.18;58.00;103029.97;4994302;28;45366;-73
2022/03/19 10:08:39;;;;;;;;;56.75;45.50;;;;;13.26;57.02;103015.81;4993645;28;45556;-73
2022/03/19 10:11:13;;;;;;;;;58.50;45.25;;;;;13.31;56.12;103014.41;4991519;28;45420;-72
2022/03/19 10:13:46;;;;;;;;;57.25;43.75;;;;;13.31;55.46;103002.31;4991836;28;45494;-72
2022/03/19 10:16:26;;;;;;;;;58.00;45.25;;;;;13.39;54.67;103014.94;4991686;28;45620;-72
2022/03/19 10:18:55;;;;;;;;;55.25;44.75;;;;;13.43;54.44;103006.59;4991740;28;46366;-72
2022/03/19 10:21:21;;;;;;;;;48.50;36.25;;;;;13.41;54.77;102993.47;4992158;28;45434;-78
2022/03/19 10:23:46;;;;;;;;;58.00;46.00;;;;;13.50;53.86;102997.53;4992250;28;45448;-75
2022/03/19 10:26:37;;;;;;;;;57.00;45.00;;;;;13.57;55.13;102997.13;4993377;28;45525;-72
2022/03/19 10:29:09;;;;;;;;;55.00;42.00;;;;;13.62;53.97;102991.44;4993477;28;46320;-72
2022/03/19 10:31:46;;;;;;;;;52.00;42.25;;;;;13.69;53.75;102991.84;4993864;28;45429;-72
2022/03/19 10:34:14;;;;;;;;;55.75;45.25;;;;;13.73;52.29;102984.31;4993835;27;45271;-73
2022/03/19 10:36:45;;;;;;;;;55.75;43.00;;;;;13.75;52.86;102977.53;4994210;28;45631;-73
2022/03/19 10:39:13;;;;;;;;;54.25;44.50;;;;;13.86;52.01;102985.16;4993842;28;46178;-72
2022/03/19 10:41:39;;;;;;;;;53.75;42.00;;;;;13.88;52.36;102981.84;4995897;27;45892;-79
2022/03/19 10:44:19;;;;;;;;;55.00;43.00;;;;;13.91;50.38;102974.25;4993153;27;45376;-76
2022/03/19 10:46:49;;;;;;;;;56.50;44.25;;;;;13.87;48.92;102960.91;4994561;28;45582;-77
2022/03/19 10:49:17;;;;;;;;;53.00;42.00;;;;;13.98;49.75;102969.44;4993888;28;46115;-79
2022/03/19 10:51:44;;;;;;;;;49.00;41.00;;;;;14.09;49.52;102984.09;4993421;28;45992;-78
2022/03/19 10:54:12;;;;;;;;;53.75;43.50;;;;;14.07;49.42;102960.53;4993162;28;45457;-78
2022/03/19 10:56:38;;;;;;;;;44.50;38.50;;;;;14.20;48.75;102974.34;4993390;28;45450;-78
2022/03/19 10:59:04;;;;;;;;;55.00;42.50;;;;;14.23;48.97;102967.63;4993028;28;46012;-78
2022/03/19 11:01:35;;;;;;;;;48.75;39.75;;;;;14.29;48.21;102974.03;4993815;28;45446;-77
2022/03/19 11:04:02;;;;;;;;;53.75;44.00;;;;;14.28;47.82;102960.09;4993335;28;45331;-78
2022/03/19 11:06:32;;;;;;;;;52.25;41.75;;;;;14.38;48.05;102965.09;4993753;28;45212;-77
2022/03/19 11:09:04;;;;;;;;;49.50;41.00;;;;;14.44;47.30;102958.50;4975523;28;45413;-78
2022/03/19 11:11:39;;;;;;;;;51.00;37.75;;;;;14.47;46.75;102959.56;4993590;28;45302;-78
2022/03/19 11:14:07;;;;;;;;;48.75;39.25;;;;;14.49;45.96;102952.75;4993463;28;45385;-77
2022/03/19 11:16:36;;;;;;;;;54.75;42.50;;;;;14.53;47.30;102951.25;4993998;28;45494;-80
2022/03/19 11:19:03;;;;;;;;;48.75;38.75;;;;;14.60;46.13;102950.81;4993832;28;45372;-79
2022/03/19 11:21:31;;;;;;;;;49.50;40.25;;;;;14.63;45.51;102950.13;4999962;28;46457;-80
2022/03/19 11:24:10;;;;;;;;;54.75;43.75;;;;;14.64;45.29;102939.78;5017071;28;45321;-80
2022/03/19 11:26:37;;;;;;;;;53.50;41.50;;;;;14.67;45.24;102921.78;4980171;28;45545;-75
2022/03/19 11:29:05;;;;;;;;;53.00;41.25;;;;;14.80;45.61;102940.75;4992601;27;45440;-74
2022/03/19 11:31:33;;;;;;;;;55.00;41.75;;;;;14.85;44.68;102934.13;5007646;28;45375;-70